Chicago Bridge — H9NR — position and weather

sailwx.info

Track history (hours):
 
Tides and Currents Weather Stations Pressure Air Temp Water Temp Dewpoint Dewpoint Depression Visibility Wind Speed Wind Dir Waves Ship Positions

Chicago Bridge

Last reported at 2015-Feb-28 12:03 UTC. Time now 2015-Mar-07 00:15 UTC.
Position N 24°13' E 118°23'.

Length 279 m; draft 10.6 m.

Type: Ship (hazmat cat B). MMSI: 352018000.

Date/timePositionNaut miles runAvg speedWind from/ knotsBaromVisibWave heightAir tempDewpointWater temp
2015-Feb-28 12:03N 24°13' E 118°23'714.4
2015-Feb-28 11:34N 24°15' E 118°15'1312.7
2015-Feb-28 10:34N 24°24' E 118°06'7 6.2
2015-Feb-28 09:23N 24°27' E 117°58'0 0.0
2015-Feb-28 08:29N 24°27' E 117°58'0 0.0
2015-Feb-28 07:29N 24°27' E 117°58'0 0.0
2015-Feb-28 06:23N 24°27' E 117°58'0 0.0
2015-Feb-28 05:23N 24°27' E 117°58'0 0.0
2015-Feb-28 04:11N 24°27' E 117°58'0 0.0
2015-Feb-28 03:29N 24°27' E 117°58'0 0.0
2015-Feb-28 00:11N 24°27' E 117°58'0 0.0
2015-Feb-27 23:16N 24°27' E 117°58'1 1.8
2015-Feb-27 22:33N 24°27' E 117°60'10 9.8
2015-Feb-27 21:32N 24°21' E 118°09'9 8.9
2015-Feb-27 20:33N 24°15' E 118°15'9 9.0
2015-Feb-27 19:33N 24°07' E 118°20'8 8.0
2015-Feb-27 18:33N 24°00' E 118°15'1515.4
2015-Feb-27 17:33N 23°47' E 118°06'22412.2
2015-Feb-26 23:06N 22°34' E 114°15'0 0.0
2015-Feb-26 21:30N 22°34' E 114°15'0 0.0
2015-Feb-26 18:18N 22°34' E 114°15'0 0.0
2015-Feb-26 16:25N 22°34' E 114°15'0 0.0
2015-Feb-26 15:30N 22°34' E 114°15'0 0.0
2015-Feb-26 14:30N 22°34' E 114°15'0 0.0
2015-Feb-26 13:30N 22°34' E 114°15'0 0.0
2015-Feb-26 12:30N 22°34' E 114°15'0 0.1
2015-Feb-26 11:33N 22°34' E 114°15'19 4.8
2015-Feb-26 07:33N 22°17' E 114°06'3 2.8
2015-Feb-26 06:33N 22°19' E 114°08'0 0.0
2015-Feb-26 05:21N 22°19' E 114°08'0 0.0
2015-Feb-26 04:33N 22°19' E 114°08'0 0.0
2015-Feb-26 03:33N 22°19' E 114°08'0 0.0
2015-Feb-26 02:33N 22°19' E 114°08'0 0.0
2015-Feb-26 01:33N 22°19' E 114°08'0 0.0
2015-Feb-26 00:33N 22°19' E 114°08'0 0.0
2015-Feb-25 23:33N 22°19' E 114°08'0 0.0
2015-Feb-25 22:33N 22°19' E 114°08'0 0.0
2015-Feb-25 21:33N 22°19' E 114°08'0 0.0
2015-Feb-25 20:33N 22°19' E 114°08'0 0.0
2015-Feb-25 19:33N 22°19' E 114°08'0 0.1
2015-Feb-25 18:33N 22°19' E 114°08'0 0.1
2015-Feb-25 17:33N 22°19' E 114°08'0 0.0
2015-Feb-25 16:33N 22°19' E 114°08'0 0.4
2015-Feb-25 15:34N 22°19' E 114°07'14 7.1
2015-Feb-25 13:33N 22°09' E 114°17'1211.1
2015-Feb-25 12:26N 22°10' E 114°31'29113.8
2015-Feb-24 15:21N 22°26' E 119°45'1013.0
2015-Feb-24 14:33N 22°29' E 119°55'1313.4
2015-Feb-24 13:33N 22°32' E 120°10'9 9.5
2015-Feb-24 12:33N 22°33' E 120°20'0 0.3
2015-Feb-24 11:29N 22°33' E 120°19'0 0.0
2015-Feb-24 10:29N 22°33' E 120°19'0 0.0
2015-Feb-24 09:29N 22°33' E 120°19'0 0.0
2015-Feb-24 08:29N 22°33' E 120°19'0 0.0
2015-Feb-24 07:23N 22°33' E 120°19'0 0.0
2015-Feb-24 06:29N 22°33' E 120°19'0 0.0
2015-Feb-24 05:28N 22°33' E 120°19'0 0.0
2015-Feb-24 04:22N 22°33' E 120°19'0 0.0
2015-Feb-24 03:33N 22°33' E 120°19'4 4.2
2015-Feb-24 02:33N 22°32' E 120°15'7 6.8
2015-Feb-24 01:33N 22°30' E 120°08'1414.2
2015-Feb-24 00:34N 22°27' E 119°53'31218.1
2015-Feb-23 07:18N 22°34' E 114°16'0 0.0
2015-Feb-22 23:18N 22°34' E 114°16'0 0.0
2015-Feb-22 20:24N 22°34' E 114°16'0 0.0
2015-Feb-22 14:23N 22°34' E 114°16'0 0.0
2015-Feb-22 13:30N 22°34' E 114°16'0 0.0
2015-Feb-22 12:29N 22°34' E 114°16'1 0.2
2015-Feb-22 09:33N 22°34' E 114°16'23014.4
2015-Feb-21 17:33N 23°49' E 118°12'2017.9
2015-Feb-21 16:25N 24°02' E 118°29'  
Track history (hours):
 
Tides and Currents Weather Stations Pressure Air Temp Water Temp Dewpoint Dewpoint Depression Visibility Wind Speed Wind Dir Waves Ship Positions

Chicago Bridge

Last reported at 2015-Feb-28 12:03 UTC. Time now 2015-Mar-07 00:15 UTC.
Position N 24°13' E 118°23'.

Length 279 m; draft 10.6 m.

Type: Ship (hazmat cat B). MMSI: 352018000.

Date/timePositionNaut miles runAvg speedWind from/ knotsBaromVisibWave heightAir tempDewpointWater temp
2015-Feb-28 12:03N 24°13' E 118°23'714.4
2015-Feb-28 11:34N 24°15' E 118°15'1312.7
2015-Feb-28 10:34N 24°24' E 118°06'7 6.2
2015-Feb-28 09:23N 24°27' E 117°58'0 0.0
2015-Feb-28 08:29N 24°27' E 117°58'0 0.0
2015-Feb-28 07:29N 24°27' E 117°58'0 0.0
2015-Feb-28 06:23N 24°27' E 117°58'0 0.0
2015-Feb-28 05:23N 24°27' E 117°58'0 0.0
2015-Feb-28 04:11N 24°27' E 117°58'0 0.0
2015-Feb-28 03:29N 24°27' E 117°58'0 0.0
2015-Feb-28 00:11N 24°27' E 117°58'0 0.0
2015-Feb-27 23:16N 24°27' E 117°58'1 1.8
2015-Feb-27 22:33N 24°27' E 117°60'10 9.8
2015-Feb-27 21:32N 24°21' E 118°09'9 8.9
2015-Feb-27 20:33N 24°15' E 118°15'9 9.0
2015-Feb-27 19:33N 24°07' E 118°20'8 8.0
2015-Feb-27 18:33N 24°00' E 118°15'1515.4
2015-Feb-27 17:33N 23°47' E 118°06'22412.2
2015-Feb-26 23:06N 22°34' E 114°15'0 0.0
2015-Feb-26 21:30N 22°34' E 114°15'0 0.0
2015-Feb-26 18:18N 22°34' E 114°15'0 0.0
2015-Feb-26 16:25N 22°34' E 114°15'0 0.0
2015-Feb-26 15:30N 22°34' E 114°15'0 0.0
2015-Feb-26 14:30N 22°34' E 114°15'0 0.0
2015-Feb-26 13:30N 22°34' E 114°15'0 0.0
2015-Feb-26 12:30N 22°34' E 114°15'0 0.1
2015-Feb-26 11:33N 22°34' E 114°15'19 4.8
2015-Feb-26 07:33N 22°17' E 114°06'3 2.8
2015-Feb-26 06:33N 22°19' E 114°08'0 0.0
2015-Feb-26 05:21N 22°19' E 114°08'0 0.0
2015-Feb-26 04:33N 22°19' E 114°08'0 0.0
2015-Feb-26 03:33N 22°19' E 114°08'0 0.0
2015-Feb-26 02:33N 22°19' E 114°08'0 0.0
2015-Feb-26 01:33N 22°19' E 114°08'0 0.0
2015-Feb-26 00:33N 22°19' E 114°08'0 0.0
2015-Feb-25 23:33N 22°19' E 114°08'0 0.0
2015-Feb-25 22:33N 22°19' E 114°08'0 0.0
2015-Feb-25 21:33N 22°19' E 114°08'0 0.0
2015-Feb-25 20:33N 22°19' E 114°08'0 0.0
2015-Feb-25 19:33N 22°19' E 114°08'0 0.1
2015-Feb-25 18:33N 22°19' E 114°08'0 0.1
2015-Feb-25 17:33N 22°19' E 114°08'0 0.0
2015-Feb-25 16:33N 22°19' E 114°08'0 0.4
2015-Feb-25 15:34N 22°19' E 114°07'14 7.1
2015-Feb-25 13:33N 22°09' E 114°17'1211.1
2015-Feb-25 12:26N 22°10' E 114°31'29113.8
2015-Feb-24 15:21N 22°26' E 119°45'1013.0
2015-Feb-24 14:33N 22°29' E 119°55'1313.4
2015-Feb-24 13:33N 22°32' E 120°10'9 9.5
2015-Feb-24 12:33N 22°33' E 120°20'0 0.3
2015-Feb-24 11:29N 22°33' E 120°19'0 0.0
2015-Feb-24 10:29N 22°33' E 120°19'0 0.0
2015-Feb-24 09:29N 22°33' E 120°19'0 0.0
2015-Feb-24 08:29N 22°33' E 120°19'0 0.0
2015-Feb-24 07:23N 22°33' E 120°19'0 0.0
2015-Feb-24 06:29N 22°33' E 120°19'0 0.0
2015-Feb-24 05:28N 22°33' E 120°19'0 0.0
2015-Feb-24 04:22N 22°33' E 120°19'0 0.0
2015-Feb-24 03:33N 22°33' E 120°19'4 4.2
2015-Feb-24 02:33N 22°32' E 120°15'7 6.8
2015-Feb-24 01:33N 22°30' E 120°08'1414.2
2015-Feb-24 00:34N 22°27' E 119°53'31218.1
2015-Feb-23 07:18N 22°34' E 114°16'0 0.0
2015-Feb-22 23:18N 22°34' E 114°16'0 0.0
2015-Feb-22 20:24N 22°34' E 114°16'0 0.0
2015-Feb-22 14:23N 22°34' E 114°16'0 0.0
2015-Feb-22 13:30N 22°34' E 114°16'0 0.0
2015-Feb-22 12:29N 22°34' E 114°16'1 0.2
2015-Feb-22 09:33N 22°34' E 114°16'23014.4
2015-Feb-21 17:33N 23°49' E 118°12'2017.9
2015-Feb-21 16:25N 24°02' E 118°29'  

Dump ship's entire track history